»·PEaware :: N1BA S36-KYKM

N1BA :: S36-KYKM

FLIGHT INFORMATION

Flight Status: Arrived
Operator: Privately registered:
United States
More flights under this callsign
Pilot: Brian A. (9771)
Aircraft: PIPER PA-18 SUPER CUB
(PA18)
More flights by this aircraft type
Origin: S36 Norman Grier Field
United States
Destination: KYKM Yakima Air Term/Mcallister
United States
More flights between these airports :: More routes between these airports
Route: DIRECT
File this flight plan on PilotEdge
Remarks:
Altitude:
(Current/Filed)
11,000ft
Speed:
(Current/Filed)
110kts
Departed: 18-Aug-19 01:06 PM
Arrived: 18-Aug-19 01:56 PM
Distance/Time
Traveled:
79nm/0:49
Distance/Time
To Go:
Arrived

Flight Plot

Page will automatically refresh every two minutes.

Flight plan parsing failed; only flown route is shown


Map Options




Map Legend


Flown Route
Filed Route
Departure Airport
Arrival Airport
Navaid (VOR, NDB)
Fix

Horizontal Profiles

Position Reports

Time Latitude Longitude Heading Altitude Ground
Speed
18-Aug-19 12:59 47.340154 -122.103765 171 476ft 0kts
18-Aug-19 13:00 47.339761 -122.103883 154 476ft 4kts
18-Aug-19 13:01 47.338173 -122.103762 67 476ft 0kts
18-Aug-19 13:02 47.338365 -122.103851 345 476ft 0kts
18-Aug-19 13:03 47.338365 -122.103851 345 476ft 0kts
18-Aug-19 13:04 47.338365 -122.103851 345 476ft 0kts
18-Aug-19 13:05 47.347268 -122.099749 33 1055ft 76kts
18-Aug-19 13:06 47.354072 -122.075940 159 2335ft 101kts
18-Aug-19 13:07 47.325572 -122.066524 167 2896ft 108kts
18-Aug-19 13:08 47.297169 -122.048601 147 2947ft 121kts
18-Aug-19 13:09 47.273456 -122.014390 138 2855ft 112kts
18-Aug-19 13:10 47.251256 -121.983108 137 3005ft 109kts
18-Aug-19 13:11 47.229761 -121.953034 139 3067ft 98kts
18-Aug-19 13:12 47.206902 -121.930300 143 3244ft 99kts
18-Aug-19 13:13 47.191142 -121.897233 120 3335ft 104kts
18-Aug-19 13:14 47.179259 -121.857121 105 3253ft 107kts
18-Aug-19 13:15 47.171574 -121.814595 103 3188ft 108kts
18-Aug-19 13:16 47.165325 -121.771976 104 3157ft 96kts
18-Aug-19 13:17 47.158736 -121.739830 103 3037ft 77kts
18-Aug-19 13:18 47.152374 -121.709982 104 2851ft 76kts
18-Aug-19 13:19 47.146128 -121.679989 103 2668ft 77kts
18-Aug-19 13:20 47.139229 -121.646658 104 2759ft 111kts
18-Aug-19 13:21 47.126563 -121.604718 107 3451ft 113kts
18-Aug-19 13:22 47.120578 -121.557546 88 3070ft 112kts
18-Aug-19 13:23 47.122102 -121.513423 109 3072ft 111kts
18-Aug-19 13:24 47.105588 -121.475488 132 3095ft 111kts
18-Aug-19 13:25 47.084798 -121.447691 141 3403ft 96kts
18-Aug-19 13:26 47.065708 -121.422251 157 3815ft 99kts
18-Aug-19 13:27 47.040722 -121.413055 203 5089ft 92kts
18-Aug-19 13:28 47.015627 -121.397866 153 6091ft 106kts
18-Aug-19 13:29 46.987592 -121.385030 160 6840ft 105kts
18-Aug-19 13:30 46.966886 -121.353197 123 7123ft 121kts
18-Aug-19 13:31 46.958561 -121.305660 80 6589ft 124kts
18-Aug-19 13:32 46.947983 -121.258795 116 6205ft 124kts
18-Aug-19 13:33 46.929742 -121.216118 126 5838ft 121kts
18-Aug-19 13:34 46.913333 -121.177842 121 6490ft 109kts
18-Aug-19 13:35 46.898059 -121.138798 122 6700ft 118kts
18-Aug-19 13:36 46.881672 -121.096525 115 6577ft 121kts
18-Aug-19 13:37 46.866001 -121.052662 122 6177ft 121kts
18-Aug-19 13:38 46.847533 -121.012661 124 5628ft 114kts
18-Aug-19 13:39 46.827773 -120.975708 133 5406ft 116kts
18-Aug-19 13:40 46.808696 -120.938504 121 5149ft 114kts
18-Aug-19 13:41 46.790260 -120.902731 125 4768ft 104kts
18-Aug-19 13:42 46.773180 -120.867927 125 4350ft 105kts
18-Aug-19 13:43 46.756685 -120.832630 123 3965ft 105kts
18-Aug-19 13:44 46.738829 -120.798968 135 3588ft 104kts
18-Aug-19 13:45 46.720514 -120.770634 134 3591ft 92kts
18-Aug-19 13:46 46.701855 -120.741411 134 3592ft 102kts
18-Aug-19 13:48 46.682310 -120.710886 134 3591ft 103kts
18-Aug-19 13:49 46.662753 -120.680341 134 3591ft 103kts
18-Aug-19 13:50 46.642543 -120.649843 138 3401ft 107kts
18-Aug-19 13:51 46.619899 -120.623112 143 2701ft 104kts
18-Aug-19 13:52 46.599566 -120.596629 140 2178ft 92kts
18-Aug-19 13:53 46.582702 -120.565212 113 2199ft 105kts
18-Aug-19 13:54 46.574950 -120.528329 111 2135ft 82kts
18-Aug-19 13:55 46.564250 -120.520766 250 1591ft 56kts
18-Aug-19 13:56 46.567373 -120.538675 294 1059ft 10kts
18-Aug-19 13:57 46.568948 -120.539760 285 1063ft 12kts
18-Aug-19 13:58 46.569823 -120.540619 71 1064ft 0kts

Navigation Log

Ident Type
Flight plan parsing failed, navigation log unavailable